createdAt,value
2022-11-22T00:00:25.985Z,97721.06
2022-11-22T00:02:52.659Z,97723.31
2022-11-22T00:05:19.998Z,97738.06
2022-11-22T00:07:46.755Z,97720.44
2022-11-22T00:10:14.534Z,97718.53
2022-11-22T00:12:41.591Z,97708.19
2022-11-22T00:15:08.926Z,97696.63
2022-11-22T00:17:36.114Z,97705.44
2022-11-22T00:20:03.695Z,97704.19
2022-11-22T00:22:32.203Z,97694.84
2022-11-22T00:24:58.885Z,97697.41
2022-11-22T00:27:25.900Z,97686.63
2022-11-22T00:29:52.676Z,97657.63
2022-11-22T00:32:19.413Z,97665.84
2022-11-22T00:34:46.174Z,97661.47
2022-11-22T00:37:12.974Z,97682.53
2022-11-22T00:39:39.783Z,97688.16
2022-11-22T00:42:06.511Z,97696.03
2022-11-22T00:44:33.313Z,97695.72
2022-11-22T00:47:00.028Z,97689.75
2022-11-22T00:49:26.741Z,97687.41
2022-11-22T00:51:53.600Z,97712.16
2022-11-22T00:54:20.308Z,97693.44
2022-11-22T00:56:47.001Z,97706.63
2022-11-22T00:59:13.758Z,97729.44
2022-11-22T01:01:40.641Z,97732.50
2022-11-22T01:04:07.408Z,97710.22
2022-11-22T01:06:34.219Z,97744.47
2022-11-22T01:09:00.962Z,97726.06
2022-11-22T01:11:27.741Z,97757.47
2022-11-22T01:13:54.459Z,97756.53
2022-11-22T01:16:21.394Z,97752.72
2022-11-22T01:18:48.305Z,97750.53
2022-11-22T01:21:14.965Z,97766.53
2022-11-22T01:23:41.805Z,97742.09
2022-11-22T01:26:09.317Z,97775.41
2022-11-22T01:28:36.747Z,97760.72
2022-11-22T01:31:04.896Z,97779.09
2022-11-22T01:33:31.616Z,97774.22
2022-11-22T01:35:58.617Z,97768.56
2022-11-22T01:38:25.736Z,97774.91
2022-11-22T01:40:53.342Z,97777.09
2022-11-22T01:43:24.232Z,97756.66
2022-11-22T01:45:55.636Z,97754.25
2022-11-22T01:48:31.965Z,97779.50
2022-11-22T01:51:28.431Z,97772.34
2022-11-22T01:54:00.560Z,97773.38
2022-11-22T01:56:29.518Z,97791.66
2022-11-22T01:59:04.709Z,97788.41
2022-11-22T02:01:32.606Z,97763.97
2022-11-22T02:04:02.035Z,97783.34
2022-11-22T02:06:39.401Z,97769.41
2022-11-22T02:09:14.380Z,97775.31
2022-11-22T02:11:50.132Z,97785.38
2022-11-22T02:14:21.183Z,97775.78
2022-11-22T02:16:48.676Z,97774.97
2022-11-22T02:19:36.986Z,97782.00
2022-11-22T02:22:27.903Z,97792.53
2022-11-22T02:25:13.168Z,97799.84
2022-11-22T02:27:40.206Z,97782.47
2022-11-22T02:30:07.743Z,97805.50
2022-11-22T02:32:34.592Z,97808.56
2022-11-22T02:35:01.437Z,97794.63
2022-11-22T02:37:31.213Z,97785.91
2022-11-22T02:40:03.092Z,97808.50
2022-11-22T02:42:30.855Z,97781.38
2022-11-22T02:44:58.033Z,97806.63
2022-11-22T02:47:24.742Z,97812.88
2022-11-22T02:49:53.678Z,97812.72
2022-11-22T02:52:20.970Z,97787.94
2022-11-22T02:54:47.689Z,97822.69
2022-11-22T02:57:14.451Z,97831.16
2022-11-22T02:59:41.234Z,97819.34
2022-11-22T03:02:07.961Z,97823.75
2022-11-22T03:04:34.839Z,97836.63
2022-11-22T03:07:02.260Z,97800.41
2022-11-22T03:09:29.822Z,97808.03
2022-11-22T03:11:56.656Z,97824.53
2022-11-22T03:14:23.856Z,97821.09
2022-11-22T03:16:51.323Z,97824.00
2022-11-22T03:19:18.003Z,97820.56
2022-11-22T03:21:45.061Z,97810.84
2022-11-22T03:24:13.051Z,97810.44
2022-11-22T03:26:39.732Z,97827.78
2022-11-22T03:29:06.467Z,97819.63
2022-11-22T03:31:33.219Z,97822.63
2022-11-22T03:33:59.953Z,97815.16
2022-11-22T03:36:26.727Z,97812.50
2022-11-22T03:38:53.391Z,97812.28
2022-11-22T03:41:20.223Z,97833.16
2022-11-22T03:43:47.016Z,97802.28
2022-11-22T03:46:15.509Z,97839.94
2022-11-22T03:48:42.466Z,97841.16
2022-11-22T03:51:09.400Z,97816.72
2022-11-22T03:53:36.211Z,97823.25
2022-11-22T03:56:03.210Z,97828.13
2022-11-22T03:58:30.250Z,97837.19
2022-11-22T04:00:57.802Z,97848.56
2022-11-22T04:03:24.810Z,97863.16
2022-11-22T04:05:51.472Z,97860.13
2022-11-22T04:08:18.421Z,97854.09
2022-11-22T04:10:45.085Z,97866.38
2022-11-22T04:13:11.800Z,97869.22
2022-11-22T04:15:38.611Z,97861.72
2022-11-22T04:18:05.422Z,97865.38
2022-11-22T04:20:50.551Z,97863.03
2022-11-22T04:23:20.322Z,97870.91
2022-11-22T04:25:49.879Z,97877.34
2022-11-22T04:28:19.407Z,97885.84
2022-11-22T04:31:04.612Z,97882.41
2022-11-22T04:33:31.304Z,97895.94
2022-11-22T04:35:58.156Z,97874.25
2022-11-22T04:38:24.859Z,97871.41
2022-11-22T04:40:52.172Z,97848.56
2022-11-22T04:43:45.950Z,97847.94
2022-11-22T04:46:14.163Z,97856.25
2022-11-22T04:48:41.209Z,97866.41
2022-11-22T04:51:29.825Z,97864.03
2022-11-22T04:53:56.638Z,97853.34
2022-11-22T04:56:23.835Z,97868.97
2022-11-22T04:58:55.446Z,97873.44
2022-11-22T05:01:22.273Z,97859.50
2022-11-22T05:03:49.073Z,97845.34
2022-11-22T05:06:16.089Z,97869.41
2022-11-22T05:08:42.816Z,97845.19
2022-11-22T05:11:09.808Z,97866.84
2022-11-22T05:13:39.412Z,97845.63
2022-11-22T05:16:08.904Z,97871.91
2022-11-22T05:18:36.013Z,97874.78
2022-11-22T05:21:07.524Z,97884.53
2022-11-22T05:23:53.239Z,97899.53
2022-11-22T05:26:25.603Z,97891.88
2022-11-22T05:28:52.528Z,97856.28
2022-11-22T05:31:23.113Z,97884.19
2022-11-22T05:33:51.877Z,97845.97
2022-11-22T05:36:19.062Z,97880.75
2022-11-22T05:38:46.164Z,97876.91
2022-11-22T05:41:14.846Z,97871.88
2022-11-22T05:43:41.652Z,97878.94
2022-11-22T05:46:12.826Z,97895.66
2022-11-22T05:48:46.076Z,97894.25
2022-11-22T05:51:18.729Z,97901.91
2022-11-22T05:53:45.978Z,97912.63
2022-11-22T05:56:20.864Z,97898.69
2022-11-22T05:58:47.845Z,97919.13
2022-11-22T06:01:19.999Z,97899.91
2022-11-22T06:03:48.428Z,97931.25
2022-11-22T06:06:15.693Z,97897.84
2022-11-22T06:08:45.217Z,97938.28
2022-11-22T06:11:18.544Z,97909.19
2022-11-22T06:13:47.318Z,97938.28
2022-11-22T06:16:14.637Z,97945.59
2022-11-22T06:18:42.160Z,97954.72
2022-11-22T06:21:15.139Z,97953.75
2022-11-22T06:23:41.994Z,97938.16
2022-11-22T06:26:13.788Z,97957.78
2022-11-22T06:28:40.959Z,97950.94
2022-11-22T06:31:09.855Z,97940.84
2022-11-22T06:33:36.894Z,97958.84
2022-11-22T06:36:05.953Z,97959.84
2022-11-22T06:38:33.360Z,97956.63
2022-11-22T06:41:06.008Z,97966.72
2022-11-22T06:43:34.147Z,97970.56
2022-11-22T06:46:02.267Z,97955.00
2022-11-22T06:48:36.423Z,97954.59
2022-11-22T06:51:13.449Z,97976.69
2022-11-22T06:53:49.058Z,97988.22
2022-11-22T06:56:37.789Z,97994.91
2022-11-22T06:59:06.050Z,98004.25
2022-11-22T07:01:34.649Z,98002.84
2022-11-22T07:04:02.407Z,97995.34
2022-11-22T07:06:32.603Z,97998.16
2022-11-22T07:09:01.382Z,98010.94
2022-11-22T07:11:30.529Z,97992.31
2022-11-22T07:14:03.552Z,98001.22
2022-11-22T07:16:35.028Z,98016.81
2022-11-22T07:19:01.772Z,98022.28
2022-11-22T07:21:28.526Z,98027.94
2022-11-22T07:23:55.854Z,98004.47
2022-11-22T07:26:26.472Z,98025.50
2022-11-22T07:28:53.280Z,98027.75
2022-11-22T07:31:20.653Z,98038.47
2022-11-22T07:33:47.580Z,98006.28
2022-11-22T07:36:17.547Z,98042.13
2022-11-22T07:38:45.521Z,98039.91
2022-11-22T07:41:12.741Z,98023.09
2022-11-22T07:43:39.621Z,98046.75
2022-11-22T07:46:10.464Z,98032.19
2022-11-22T07:48:37.240Z,98040.09
2022-11-22T07:51:05.776Z,98057.06
2022-11-22T07:53:33.384Z,98044.91
2022-11-22T07:56:04.420Z,98049.72
2022-11-22T07:58:31.695Z,98053.16
2022-11-22T08:00:58.486Z,98034.31
2022-11-22T08:03:28.916Z,98052.88
2022-11-22T08:06:00.603Z,98060.16
2022-11-22T08:08:28.771Z,98058.72
2022-11-22T08:10:55.878Z,98049.44
2022-11-22T08:13:23.023Z,98070.31
2022-11-22T08:15:51.470Z,98058.78
2022-11-22T08:18:20.326Z,98073.34
2022-11-22T08:20:47.111Z,98081.84
2022-11-22T08:23:13.937Z,98075.53
2022-11-22T08:25:40.702Z,98053.19
2022-11-22T08:28:07.550Z,97995.28
2022-11-22T08:30:37.863Z,98072.38
2022-11-22T08:33:04.668Z,98053.50
2022-11-22T08:35:31.433Z,98058.78
2022-11-22T08:37:58.219Z,98074.75
2022-11-22T08:40:25.087Z,98058.53
2022-11-22T08:42:55.226Z,98063.72
2022-11-22T08:45:23.571Z,98062.09
2022-11-22T08:47:50.461Z,98056.19
2022-11-22T08:50:18.266Z,98047.44
2022-11-22T08:52:45.156Z,98019.50
2022-11-22T08:55:11.889Z,98025.22
2022-11-22T08:57:38.642Z,98051.38
2022-11-22T09:00:06.821Z,98051.00
2022-11-22T09:02:33.634Z,98058.38
2022-11-22T09:05:02.693Z,98044.59
2022-11-22T09:10:16.757Z,98072.84
2022-11-22T09:12:44.972Z,98041.56
2022-11-22T09:15:12.920Z,98071.06
2022-11-22T09:17:40.004Z,98070.84
2022-11-22T09:20:07.509Z,98057.22
2022-11-22T09:22:34.901Z,98069.41
2022-11-22T09:25:02.059Z,98059.66
2022-11-22T09:27:28.891Z,98061.22
2022-11-22T09:29:55.608Z,98064.13
2022-11-22T09:32:22.467Z,98055.41
2022-11-22T09:34:49.364Z,98045.13
2022-11-22T09:37:18.617Z,98054.09
2022-11-22T09:39:48.938Z,98044.63
2022-11-22T09:42:24.502Z,98064.94
2022-11-22T09:45:16.373Z,98059.81
2022-11-22T09:48:14.099Z,98059.97
2022-11-22T09:50:59.663Z,98060.72
2022-11-22T09:53:34.900Z,98057.34
2022-11-22T09:56:05.693Z,98059.09
2022-11-22T09:58:42.401Z,98070.72
2022-11-22T10:01:13.902Z,98069.75
2022-11-22T10:03:43.715Z,98075.31
2022-11-22T10:06:20.599Z,98071.75
2022-11-22T10:09:16.921Z,98049.22
2022-11-22T10:11:52.052Z,98084.38
2022-11-22T10:14:37.264Z,98078.47
2022-11-22T10:17:18.869Z,98078.41
2022-11-22T10:19:56.494Z,98084.88
2022-11-22T10:22:23.598Z,98061.53
2022-11-22T10:24:50.348Z,98075.38
2022-11-22T10:27:18.679Z,98069.19
2022-11-22T10:30:01.331Z,98074.66
2022-11-22T10:32:57.307Z,98073.31
2022-11-22T10:35:24.121Z,98072.69
2022-11-22T10:38:02.921Z,98073.69
2022-11-22T10:41:03.667Z,98078.41
2022-11-22T10:43:55.956Z,98060.03
2022-11-22T10:46:40.545Z,98064.50
2022-11-22T10:49:33.590Z,98080.59
2022-11-22T10:52:13.395Z,98074.50
2022-11-22T10:54:49.547Z,98088.59
2022-11-22T10:57:35.116Z,98059.50
2022-11-22T11:00:21.532Z,98089.28
2022-11-22T11:03:13.167Z,98072.59
2022-11-22T11:06:15.616Z,98076.28
2022-11-22T11:09:23.500Z,98079.91
2022-11-22T11:11:30.259Z,98079.34
2022-11-22T11:14:04.661Z,98053.47
2022-11-22T11:16:36.178Z,98082.31
2022-11-22T11:19:06.833Z,98074.00
2022-11-22T11:21:37.143Z,98049.47
2022-11-22T11:24:12.136Z,98038.88
2022-11-22T11:26:39.119Z,98067.09
2022-11-22T11:29:18.143Z,98060.19
2022-11-22T11:31:49.929Z,98043.81
2022-11-22T11:34:27.771Z,98055.97
2022-11-22T11:36:58.669Z,98060.91
2022-11-22T11:39:31.335Z,98059.34
2022-11-22T11:41:59.227Z,98052.16
2022-11-22T11:44:33.321Z,98045.09
2022-11-22T11:47:00.908Z,98050.63
2022-11-22T11:49:30.514Z,98049.81
2022-11-22T11:52:03.262Z,98048.75
2022-11-22T11:54:38.796Z,98039.84
2022-11-22T11:57:19.251Z,98032.13
2022-11-22T11:59:50.249Z,98023.06
2022-11-22T12:02:20.044Z,98026.38
2022-11-22T12:05:03.573Z,98030.53
2022-11-22T12:07:36.584Z,98025.41
2022-11-22T12:10:32.587Z,98025.56
2022-11-22T12:13:24.680Z,98030.59
2022-11-22T12:15:59.062Z,98023.53
2022-11-22T12:18:47.808Z,98032.84
2022-11-22T12:21:26.527Z,98038.16
2022-11-22T12:26:55.274Z,98038.16
2022-11-22T12:29:22.545Z,98032.84
2022-11-22T12:32:20.177Z,97930.16
2022-11-22T12:34:58.523Z,98024.38
2022-11-22T12:37:39.241Z,98017.84
2022-11-22T12:40:16.637Z,97987.31
2022-11-22T12:42:56.060Z,98002.78
2022-11-22T12:45:30.196Z,97999.56
2022-11-22T12:48:03.411Z,98002.78
2022-11-22T12:48:23.675Z,98015.63
2022-11-22T12:50:45.595Z,98000.72
2022-11-22T12:53:21.415Z,98000.81
2022-11-22T12:55:54.338Z,97993.00
2022-11-22T12:58:28.019Z,97981.94
2022-11-22T13:01:07.052Z,97995.63
2022-11-22T13:03:42.471Z,97994.16
2022-11-22T13:06:10.924Z,98003.13
2022-11-22T13:08:45.667Z,98003.22
2022-11-22T13:11:18.834Z,98001.28
2022-11-22T13:13:51.772Z,98000.91
2022-11-22T13:16:18.703Z,98011.06
2022-11-22T13:18:55.778Z,98011.06
2022-11-22T13:21:29.789Z,98004.16
2022-11-22T13:24:28.528Z,98006.47
2022-11-22T13:27:08.712Z,97998.88
2022-11-22T13:29:39.691Z,98004.97
2022-11-22T13:32:12.346Z,97996.44
2022-11-22T13:34:41.917Z,98001.81
2022-11-22T13:37:15.500Z,98010.31
2022-11-22T13:39:47.116Z,98006.19
2022-11-22T13:42:27.248Z,97982.66
2022-11-22T13:44:56.914Z,98020.72
2022-11-22T13:47:23.637Z,98018.06
2022-11-22T13:49:53.484Z,98022.06
2022-11-22T13:52:20.770Z,98017.53
2022-11-22T13:54:47.631Z,98017.25
2022-11-22T13:57:39.786Z,98013.94
2022-11-22T14:00:12.468Z,98009.91
2022-11-22T14:02:51.546Z,98014.59
2022-11-22T14:05:18.824Z,98012.31
2022-11-22T14:07:53.429Z,98021.63
2022-11-22T14:10:39.607Z,98015.97
2022-11-22T14:13:25.840Z,98003.31
2022-11-22T14:16:26.800Z,98011.75
2022-11-22T14:19:00.062Z,98012.56
2022-11-22T14:21:51.101Z,98005.19
2022-11-22T14:24:45.093Z,98004.75
2022-11-22T14:27:20.771Z,98012.47
2022-11-22T14:30:05.678Z,98017.50
2022-11-22T14:33:03.443Z,98010.53
2022-11-22T14:35:30.433Z,98013.25
2022-11-22T14:38:29.346Z,98024.28
2022-11-22T14:41:28.457Z,98016.66
2022-11-22T14:44:20.935Z,98014.38
2022-11-22T14:47:16.990Z,98031.06
2022-11-22T14:49:52.137Z,98032.31
2022-11-22T14:52:31.158Z,98023.50
2022-11-22T14:55:14.177Z,98012.41
2022-11-22T15:00:56.120Z,98030.94
2022-11-22T15:03:52.358Z,98037.69
2022-11-22T15:09:18.603Z,98031.66
2022-11-22T15:09:46.518Z,98032.56
2022-11-22T15:12:27.699Z,98002.19
2022-11-22T15:15:00.304Z,98034.38
2022-11-22T15:57:35.578Z,98087.03
2022-11-22T16:00:03.268Z,98081.41
2022-11-22T16:02:37.789Z,98100.47
2022-11-22T16:06:08.554Z,98097.84
2022-11-22T16:07:56.804Z,98096.00
2022-11-22T16:10:33.053Z,98091.75
2022-11-22T16:13:24.478Z,98101.19
2022-11-22T16:16:13.301Z,98101.56
2022-11-22T16:18:41.606Z,98105.75
2022-11-22T16:21:11.397Z,98119.63
2022-11-22T16:23:39.660Z,98118.03
2022-11-22T16:26:30.069Z,98130.00
2022-11-22T16:29:18.407Z,98129.69
2022-11-22T16:31:45.422Z,98118.13
2022-11-22T16:34:13.743Z,98133.91
2022-11-22T16:36:40.914Z,98127.25
2022-11-22T16:39:07.665Z,98125.03
2022-11-22T16:41:35.079Z,98139.94
2022-11-22T16:44:10.341Z,98115.69
2022-11-22T16:46:37.048Z,98149.50
2022-11-22T16:49:16.921Z,98150.31
2022-11-22T16:51:46.807Z,98149.56
2022-11-22T16:54:16.867Z,98157.50
2022-11-22T16:56:43.886Z,98161.78
2022-11-22T16:59:12.872Z,98129.41
2022-11-22T17:01:43.873Z,98164.06
2022-11-22T17:04:22.985Z,98150.53
2022-11-22T17:06:50.495Z,98149.94
2022-11-22T17:09:17.701Z,98155.22
2022-11-22T17:11:45.298Z,98182.41
2022-11-22T17:14:17.278Z,98180.56
2022-11-22T17:16:45.843Z,98177.53
2022-11-22T17:19:37.418Z,98173.72
2022-11-22T17:22:00.921Z,98179.00
2022-11-22T17:24:28.020Z,98161.13
2022-11-22T17:26:54.894Z,98178.78
2022-11-22T17:29:49.467Z,98145.72
2022-11-22T17:32:14.637Z,98143.47
2022-11-22T17:34:41.513Z,98174.06
2022-11-22T17:37:12.662Z,98176.91
2022-11-22T17:39:39.985Z,98157.44
2022-11-22T17:42:06.937Z,98174.13
2022-11-22T17:44:34.261Z,98179.81
2022-11-22T17:47:01.152Z,98185.66
2022-11-22T17:49:28.550Z,98183.25
2022-11-22T17:51:55.854Z,98180.81
2022-11-22T17:54:22.843Z,98192.38
2022-11-22T17:56:49.595Z,98157.91
2022-11-22T17:59:16.555Z,98188.75
2022-11-22T18:01:43.508Z,98174.13
2022-11-22T18:04:10.477Z,98179.59
2022-11-22T18:06:37.524Z,98193.63
2022-11-22T18:09:04.362Z,98203.38
2022-11-22T18:11:31.529Z,98202.34
2022-11-22T18:13:58.400Z,98178.63
2022-11-22T18:16:29.042Z,98205.56
2022-11-22T18:18:57.909Z,98197.69
2022-11-22T18:21:29.223Z,98209.88
2022-11-22T18:23:57.835Z,98215.34
2022-11-22T18:26:38.899Z,98203.56
2022-11-22T18:31:54.750Z,98208.44
2022-11-22T18:34:23.026Z,98224.84
2022-11-22T18:37:06.239Z,98226.88
2022-11-22T18:39:36.832Z,98232.19
2022-11-22T18:42:05.933Z,98225.50
2022-11-22T18:44:33.018Z,98220.00
2022-11-22T18:47:00.067Z,98210.88
2022-11-22T18:49:27.118Z,98230.97
2022-11-22T18:51:54.056Z,98219.44
2022-11-22T18:54:22.117Z,98230.59
2022-11-22T18:56:50.323Z,98231.84
2022-11-22T18:59:17.733Z,98243.59
2022-11-22T19:01:44.547Z,98235.09
2022-11-22T19:04:15.124Z,98245.22
2022-11-22T19:06:43.144Z,98262.28
2022-11-22T19:09:10.686Z,98250.91
2022-11-22T19:11:37.508Z,98261.22
2022-11-22T19:14:05.065Z,98253.72
2022-11-22T19:16:31.985Z,98252.50
2022-11-22T19:18:59.550Z,98258.19
2022-11-22T19:21:27.981Z,98250.06
2022-11-22T19:23:56.161Z,98246.00
2022-11-22T19:26:24.807Z,98238.09
2022-11-22T19:28:57.455Z,98244.78
2022-11-22T19:31:27.914Z,98247.44
2022-11-22T19:33:55.172Z,98242.81
2022-11-22T19:36:30.500Z,98225.34
2022-11-22T19:38:59.462Z,98249.28
2022-11-22T19:41:26.862Z,98229.81
2022-11-22T19:43:55.548Z,98257.78
2022-11-22T19:46:22.751Z,98267.16
2022-11-22T19:48:57.482Z,98260.66
2022-11-22T19:51:25.602Z,98258.22
2022-11-22T19:53:53.802Z,98255.81
2022-11-22T19:56:20.816Z,98239.56
2022-11-22T19:58:52.363Z,98266.94
2022-11-22T20:01:20.553Z,98251.13
2022-11-22T20:03:52.080Z,98263.53
2022-11-22T20:06:19.608Z,98220.69
2022-11-22T20:08:46.714Z,98266.75
2022-11-22T20:11:15.792Z,98264.91
2022-11-22T20:13:44.731Z,98272.38
2022-11-22T20:16:13.808Z,98277.22
2022-11-22T20:18:40.781Z,98249.59
2022-11-22T20:21:11.545Z,98265.59
2022-11-22T20:23:38.829Z,98260.53
2022-11-22T20:26:09.693Z,98266.41
2022-11-22T20:28:38.162Z,98285.91
2022-11-22T20:31:13.300Z,98277.56
2022-11-22T20:33:42.898Z,98291.75
2022-11-22T20:36:21.756Z,98281.56
2022-11-22T20:38:49.941Z,98281.53
2022-11-22T20:41:19.876Z,98283.56
2022-11-22T20:43:47.151Z,98294.72
2022-11-22T20:46:16.352Z,98304.84
2022-11-22T20:48:45.108Z,98302.59
2022-11-22T20:51:14.496Z,98291.00
2022-11-22T20:53:41.987Z,98320.19
2022-11-22T20:56:09.832Z,98296.38
2022-11-22T20:58:36.693Z,98318.25
2022-11-22T21:01:08.056Z,98307.41
2022-11-22T21:03:35.601Z,98310.44
2022-11-22T21:06:03.814Z,98293.94
2022-11-22T21:08:32.545Z,98315.47
2022-11-22T21:11:22.680Z,98334.66
2022-11-22T21:13:50.166Z,98304.03
2022-11-22T21:16:24.160Z,98346.28
2022-11-22T21:18:52.797Z,98334.47
2022-11-22T21:21:23.056Z,98329.09
2022-11-22T21:23:55.774Z,98344.78
2022-11-22T21:26:24.303Z,98340.34
2022-11-22T21:28:51.644Z,98354.56
2022-11-22T21:31:19.389Z,98349.88
2022-11-22T21:33:46.379Z,98352.56
2022-11-22T21:36:13.782Z,98359.44
2022-11-22T21:38:40.665Z,98327.72
2022-11-22T21:41:38.148Z,98363.19
2022-11-22T21:43:58.860Z,98350.56
2022-11-22T21:46:26.086Z,98352.25
2022-11-22T21:48:55.674Z,98332.16
2022-11-22T21:51:25.742Z,98367.84
2022-11-22T21:53:56.531Z,98344.19
2022-11-22T21:56:23.416Z,98344.91
2022-11-22T21:58:50.239Z,98368.56
2022-11-22T22:01:17.131Z,98349.94
2022-11-22T22:03:43.924Z,98358.59
2022-11-22T22:06:10.757Z,98372.13
2022-11-22T22:08:37.737Z,98372.13
2022-11-22T22:11:05.273Z,98355.38
2022-11-22T22:13:32.813Z,98348.38
2022-11-22T22:16:03.604Z,98365.03
2022-11-22T22:18:32.433Z,98369.91
2022-11-22T22:21:08.151Z,98373.25
2022-11-22T22:23:36.708Z,98374.38
2022-11-22T22:26:08.928Z,98359.34
2022-11-22T22:28:37.337Z,98376.38
2022-11-22T22:31:17.155Z,98375.75
2022-11-22T22:33:45.690Z,98375.22
2022-11-22T22:36:13.011Z,98379.16
2022-11-22T22:38:40.725Z,98356.56
2022-11-22T22:41:10.774Z,98376.44
2022-11-22T22:43:40.070Z,98355.09
2022-11-22T22:46:14.994Z,98373.03
2022-11-22T22:48:42.498Z,98368.22
2022-11-22T22:51:16.012Z,98368.44
2022-11-22T22:53:43.735Z,98361.03
2022-11-22T22:56:11.720Z,98362.09
2022-11-22T22:58:38.617Z,98382.19
2022-11-22T23:01:12.811Z,98377.75
2022-11-22T23:03:39.950Z,98354.72
2022-11-22T23:06:09.575Z,98365.34
2022-11-22T23:08:37.143Z,98379.59
2022-11-22T23:11:09.799Z,98344.16
2022-11-22T23:13:39.080Z,98373.00
2022-11-22T23:16:07.895Z,98375.88
2022-11-22T23:18:36.963Z,98378.69
2022-11-22T23:21:06.275Z,98372.88
2022-11-22T23:23:33.596Z,98385.47
2022-11-22T23:26:18.350Z,98362.09
2022-11-22T23:28:45.117Z,98383.34
2022-11-22T23:31:14.442Z,98390.56
2022-11-22T23:33:42.414Z,98366.69
2022-11-22T23:36:14.949Z,98376.50
2022-11-22T23:38:42.462Z,98394.81
2022-11-22T23:41:16.360Z,98396.28
2022-11-22T23:43:43.477Z,98371.78
2022-11-22T23:46:17.807Z,98394.13
2022-11-22T23:48:52.277Z,98406.69
2022-11-22T23:51:19.181Z,98402.63
2022-11-22T23:53:45.899Z,98404.53
2022-11-22T23:56:17.940Z,98413.31
2022-11-22T23:58:48.164Z,98392.31
